Time;durP1;ratioP1;P1;durP2;ratioP2;P2;SDS_P1;SDS_P2;PMS_P1;PMS_P2;Temp;Humidity;BMP_temperature;BMP_pressure;BME280_temperature;BME280_humidity;BME280_pressure;Samples;Min_cycle;Max_cycle;Signal;HPM_P1;HPM_P2
2022/08/26 00:00:29;;;;;;;0.20;0.20;;;;;;;;;;4129097;28;20212;-42
2022/08/26 00:02:30;;;;;;;0.20;0.20;;;;;;;;;;4130078;28;20054;-42
2022/08/26 00:04:33;;;;;;;0.75;0.20;;;;;;;;;;4130362;28;20490;-43
2022/08/26 00:06:34;;;;;;;0.90;0.15;;;;;;;;;;4130340;28;20101;-43
2022/08/26 00:08:35;;;;;;;0.40;0.20;;;;;;;;;;4130411;28;20101;-43
2022/08/26 00:10:37;;;;;;;0.30;0.30;;;;;;;;;;4130085;28;20057;-43
2022/08/26 00:12:39;;;;;;;0.10;0.10;;;;;;;;;;4130078;28;20113;-43
2022/08/26 00:14:40;;;;;;;0.35;0.20;;;;;;;;;;4130348;28;20050;-43
2022/08/26 00:16:42;;;;;;;0.57;0.20;;;;;;;;;;4128966;28;20046;-43
2022/08/26 00:18:43;;;;;;;0.70;0.20;;;;;;;;;;4130055;28;20054;-43
2022/08/26 00:20:44;;;;;;;0.60;0.20;;;;;;;;;;4130169;28;20104;-43
2022/08/26 00:22:46;;;;;;;0.20;0.20;;;;;;;;;;4130007;28;20113;-43
2022/08/26 00:24:47;;;;;;;0.40;0.30;;;;;;;;;;4130108;28;20116;-43
2022/08/26 00:26:48;;;;;;;0.55;0.20;;;;;;;;;;4130134;28;20073;-43
2022/08/26 00:28:50;;;;;;;0.70;0.40;;;;;;;;;;4135709;28;20096;-50
2022/08/26 00:30:51;;;;;;;0.20;0.20;;;;;;;;;;4149958;28;20126;-43
2022/08/26 00:32:53;;;;;;;0.20;0.20;;;;;;;;;;4149490;28;20497;-42
2022/08/26 00:34:54;;;;;;;0.15;0.15;;;;;;;;;;4149570;28;20065;-43
2022/08/26 00:36:56;;;;;;;0.60;0.30;;;;;;;;;;4149615;28;20053;-42
2022/08/26 00:38:57;;;;;;;0.20;0.20;;;;;;;;;;4149597;28;20412;-43
2022/08/26 00:40:59;;;;;;;0.20;0.10;;;;;;;;;;4149654;28;20108;-43
2022/08/26 00:43:01;;;;;;;0.20;0.20;;;;;;;;;;4147592;28;20068;-43
2022/08/26 00:45:03;;;;;;;0.20;0.20;;;;;;;;;;4149438;28;20058;-43
2022/08/26 00:47:16;;;;;;;0.13;0.13;;;;;;;;;;4147972;28;20111;-43
2022/08/26 00:49:56;;;;;;;0.17;0.10;;;;;;;;;;4148346;28;20054;-43
2022/08/26 00:51:59;;;;;;;0.68;0.20;;;;;;;;;;4147161;28;20072;-43
2022/08/26 00:54:03;;;;;;;0.20;0.20;;;;;;;;;;4130785;28;20466;-43
2022/08/26 00:56:11;;;;;;;0.43;0.30;;;;;;;;;;4131032;28;20120;-43
2022/08/26 00:58:12;;;;;;;0.90;0.25;;;;;;;;;;4148881;28;20108;-43
2022/08/26 01:00:19;;;;;;;0.10;0.10;;;;;;;;;;4142980;28;20053;-42
2022/08/26 01:02:20;;;;;;;0.20;0.20;;;;;;;;;;4132734;28;20069;-42
2022/08/26 01:04:22;;;;;;;0.52;0.20;;;;;;;;;;4132861;28;20494;-43
2022/08/26 01:06:23;;;;;;;0.10;0.10;;;;;;;;;;4131690;28;20391;-43
2022/08/26 01:08:26;;;;;;;0.10;0.10;;;;;;;;;;4131273;28;20058;-43
2022/08/26 01:10:28;;;;;;;0.15;0.15;;;;;;;;;;4132811;28;20058;-43
2022/08/26 01:12:33;;;;;;;0.22;0.20;;;;;;;;;;4130922;28;20538;-42
2022/08/26 01:14:34;;;;;;;0.45;0.15;;;;;;;;;;4131399;28;20121;-43
2022/08/26 01:16:36;;;;;;;0.30;0.17;;;;;;;;;;4131471;28;20573;-42
2022/08/26 01:18:39;;;;;;;0.20;0.20;;;;;;;;;;4132523;28;20096;-43
2022/08/26 01:20:46;;;;;;;0.20;0.20;;;;;;;;;;4132693;28;20438;-43
2022/08/26 01:22:55;;;;;;;0.40;0.30;;;;;;;;;;4132610;28;20058;-43
2022/08/26 01:24:58;;;;;;;0.35;0.35;;;;;;;;;;4133032;28;20058;-43
2022/08/26 01:27:06;;;;;;;0.20;0.20;;;;;;;;;;4132686;28;20054;-43
2022/08/26 01:29:15;;;;;;;0.40;0.30;;;;;;;;;;4129963;28;20054;-43
2022/08/26 01:31:18;;;;;;;0.30;0.10;;;;;;;;;;4145786;28;20062;-43
2022/08/26 01:33:23;;;;;;;0.28;0.20;;;;;;;;;;4129421;28;20485;-44
2022/08/26 01:35:24;;;;;;;0.30;0.20;;;;;;;;;;4129383;28;20050;-42
2022/08/26 01:37:28;;;;;;;0.20;0.20;;;;;;;;;;4161760;28;20064;-43
2022/08/26 01:39:30;;;;;;;0.10;0.10;;;;;;;;;;4145528;28;20054;-43
2022/08/26 01:41:32;;;;;;;0.10;0.10;;;;;;;;;;4144315;28;20072;-43
2022/08/26 01:43:34;;;;;;;1.20;0.20;;;;;;;;;;4144730;28;20104;-44
2022/08/26 01:45:36;;;;;;;0.30;0.20;;;;;;;;;;4145237;28;20779;-43
2022/08/26 01:47:38;;;;;;;0.30;0.28;;;;;;;;;;4145132;28;20124;-42
2022/08/26 01:49:41;;;;;;;0.20;0.10;;;;;;;;;;4140393;28;20062;-43
2022/08/26 01:51:43;;;;;;;0.20;0.20;;;;;;;;;;4146300;28;20057;-43
2022/08/26 01:53:44;;;;;;;0.20;0.20;;;;;;;;;;4146440;28;20084;-43
2022/08/26 01:55:48;;;;;;;0.20;0.20;;;;;;;;;;4129424;28;20054;-43
2022/08/26 01:57:51;;;;;;;0.22;0.20;;;;;;;;;;4144687;28;20120;-43
2022/08/26 01:59:56;;;;;;;0.10;0.10;;;;;;;;;;4144921;28;20128;-42
2022/08/26 02:01:57;;;;;;;0.40;0.22;;;;;;;;;;4146223;28;20112;-43
2022/08/26 02:04:30;;;;;;;0.50;0.20;;;;;;;;;;4145001;28;20054;-43
2022/08/26 02:06:31;;;;;;;0.30;0.30;;;;;;;;;;4146027;28;20343;-43
2022/08/26 02:08:43;;;;;;;0.30;0.20;;;;;;;;;;4144791;28;20120;-44
2022/08/26 02:10:44;;;;;;;0.20;0.20;;;;;;;;;;4146472;28;20065;-43
2022/08/26 02:12:45;;;;;;;0.30;0.20;;;;;;;;;;4145517;28;20498;-43
2022/08/26 02:14:53;;;;;;;0.20;0.20;;;;;;;;;;4146118;28;20121;-42
2022/08/26 02:16:54;;;;;;;0.20;0.20;;;;;;;;;;4146216;28;20065;-43
2022/08/26 02:18:56;;;;;;;0.40;0.30;;;;;;;;;;4160500;28;20080;-43
2022/08/26 02:20:58;;;;;;;0.10;0.10;;;;;;;;;;4146495;28;20093;-43
2022/08/26 02:22:59;;;;;;;0.30;0.30;;;;;;;;;;4148098;28;20100;-42
2022/08/26 02:25:10;;;;;;;0.13;0.13;;;;;;;;;;4148037;28;20493;-43
2022/08/26 02:27:17;;;;;;;0.20;0.20;;;;;;;;;;4146480;28;20574;-43
2022/08/26 02:29:23;;;;;;;0.20;0.20;;;;;;;;;;4146346;28;20500;-42
2022/08/26 02:31:24;;;;;;;0.20;0.20;;;;;;;;;;4148075;28;20157;-43
2022/08/26 02:33:27;;;;;;;0.20;0.13;;;;;;;;;;4147595;28;20520;-43
2022/08/26 02:35:29;;;;;;;0.20;0.20;;;;;;;;;;4146464;28;20054;-44
2022/08/26 02:37:31;;;;;;;0.22;0.10;;;;;;;;;;4147817;28;20069;-43
2022/08/26 02:39:33;;;;;;;0.57;0.32;;;;;;;;;;4147923;28;20378;-43
2022/08/26 02:41:35;;;;;;;0.20;0.20;;;;;;;;;;4130125;28;20490;-43
2022/08/26 02:43:36;;;;;;;0.28;0.20;;;;;;;;;;4147100;28;20050;-42
2022/08/26 02:45:39;;;;;;;0.22;0.17;;;;;;;;;;4147665;28;20481;-43
2022/08/26 02:47:40;;;;;;;0.20;0.20;;;;;;;;;;4146251;28;20465;-43
2022/08/26 02:49:42;;;;;;;0.30;0.20;;;;;;;;;;4147543;28;20116;-43
2022/08/26 02:51:45;;;;;;;0.43;0.25;;;;;;;;;;4147496;28;20100;-50
2022/08/26 02:53:46;;;;;;;0.10;0.10;;;;;;;;;;4131398;28;20054;-44
2022/08/26 02:55:48;;;;;;;0.13;0.10;;;;;;;;;;4129589;28;20113;-44
2022/08/26 02:57:51;;;;;;;0.30;0.22;;;;;;;;;;4143769;28;20062;-44
2022/08/26 02:59:52;;;;;;;0.13;0.13;;;;;;;;;;4131172;28;20103;-44
2022/08/26 03:01:54;;;;;;;0.13;0.10;;;;;;;;;;4145169;28;20425;-43
2022/08/26 03:03:56;;;;;;;0.10;0.10;;;;;;;;;;4145152;28;20143;-44
2022/08/26 03:05:57;;;;;;;0.22;0.20;;;;;;;;;;4145438;28;20505;-44
2022/08/26 03:07:59;;;;;;;0.55;0.20;;;;;;;;;;4144238;28;20054;-44
2022/08/26 03:10:00;;;;;;;0.40;0.10;;;;;;;;;;4145261;28;20111;-44
2022/08/26 03:12:01;;;;;;;0.20;0.20;;;;;;;;;;4145376;28;20057;-44
2022/08/26 03:14:03;;;;;;;0.30;0.20;;;;;;;;;;4144871;28;20129;-43
2022/08/26 03:16:04;;;;;;;0.20;0.20;;;;;;;;;;4145399;28;20520;-43
2022/08/26 03:18:06;;;;;;;0.20;0.10;;;;;;;;;;4144867;28;20058;-44
2022/08/26 03:20:08;;;;;;;0.20;0.20;;;;;;;;;;4145246;28;20120;-43
2022/08/26 03:22:10;;;;;;;0.20;0.20;;;;;;;;;;4143981;28;20065;-43
2022/08/26 03:24:12;;;;;;;0.28;0.20;;;;;;;;;;4145110;28;20405;-43
2022/08/26 03:26:14;;;;;;;0.20;0.20;;;;;;;;;;4145420;28;20395;-43
2022/08/26 03:28:15;;;;;;;0.17;0.10;;;;;;;;;;4143297;28;20053;-44
2022/08/26 03:32:36;;;;;;;;;;;;;;;;;;4145411;28;20460;-43
2022/08/26 03:34:37;;;;;;;0.10;0.10;;;;;;;;;;4145328;28;19925;-43
2022/08/26 03:36:39;;;;;;;0.30;0.20;;;;;;;;;;4145450;28;20069;-42
2022/08/26 03:38:40;;;;;;;0.10;0.10;;;;;;;;;;4143470;28;20054;-42
2022/08/26 03:40:42;;;;;;;0.30;0.10;;;;;;;;;;4140662;28;20053;-42
2022/08/26 03:42:43;;;;;;;0.28;0.20;;;;;;;;;;4130326;28;20055;-43
2022/08/26 03:44:45;;;;;;;0.20;0.20;;;;;;;;;;4130725;28;20058;-42
2022/08/26 03:46:46;;;;;;;0.35;0.25;;;;;;;;;;4130410;28;20062;-43
2022/08/26 03:48:47;;;;;;;0.40;0.20;;;;;;;;;;4130479;28;20094;-42
2022/08/26 03:50:49;;;;;;;0.30;0.20;;;;;;;;;;4144740;28;20116;-43
2022/08/26 03:52:52;;;;;;;0.20;0.20;;;;;;;;;;4146869;28;20050;-43
2022/08/26 03:54:53;;;;;;;0.28;0.28;;;;;;;;;;4146518;28;20448;-42
2022/08/26 03:56:54;;;;;;;0.60;0.20;;;;;;;;;;4146846;28;20061;-44
2022/08/26 03:58:55;;;;;;;0.35;0.10;;;;;;;;;;4146001;28;20457;-43
2022/08/26 04:00:56;;;;;;;0.25;0.20;;;;;;;;;;4145471;28;20112;-42
2022/08/26 04:02:57;;;;;;;0.30;0.25;;;;;;;;;;4146167;28;20085;-42
2022/08/26 04:04:59;;;;;;;0.30;0.30;;;;;;;;;;4146152;28;20050;-43
2022/08/26 04:07:00;;;;;;;0.45;0.40;;;;;;;;;;4146543;28;20046;-43
2022/08/26 04:09:05;;;;;;;1.17;0.20;;;;;;;;;;4146382;28;20560;-42
2022/08/26 04:11:07;;;;;;;0.40;0.30;;;;;;;;;;4129064;28;20054;-42
2022/08/26 04:13:09;;;;;;;0.68;0.40;;;;;;;;;;4145804;28;20103;-43
2022/08/26 04:15:14;;;;;;;0.75;0.45;;;;;;;;;;4145032;28;20046;-43
2022/08/26 04:17:15;;;;;;;0.47;0.30;;;;;;;;;;4146449;28;20050;-42
2022/08/26 04:19:17;;;;;;;0.25;0.25;;;;;;;;;;4145467;28;20066;-42
2022/08/26 04:21:18;;;;;;;0.52;0.43;;;;;;;;;;4145214;28;20096;-43
2022/08/26 04:23:19;;;;;;;0.20;0.20;;;;;;;;;;4145285;28;20050;-43
2022/08/26 04:25:21;;;;;;;0.45;0.20;;;;;;;;;;4146471;28;20062;-43
2022/08/26 04:27:22;;;;;;;0.38;0.20;;;;;;;;;;4146012;28;20058;-43
2022/08/26 04:29:25;;;;;;;0.30;0.20;;;;;;;;;;4145201;28;20061;-43
2022/08/26 04:31:26;;;;;;;0.28;0.28;;;;;;;;;;4146270;28;20053;-43
2022/08/26 04:33:28;;;;;;;0.20;0.20;;;;;;;;;;4144930;28;20066;-43
2022/08/26 04:35:30;;;;;;;0.20;0.20;;;;;;;;;;4146265;28;20058;-43
2022/08/26 04:37:32;;;;;;;0.73;0.35;;;;;;;;;;4145931;28;20442;-42
2022/08/26 04:39:33;;;;;;;0.40;0.30;;;;;;;;;;4144916;28;20140;-42
2022/08/26 04:41:35;;;;;;;0.20;0.20;;;;;;;;;;4146251;28;20058;-43
2022/08/26 04:43:37;;;;;;;0.10;0.10;;;;;;;;;;4145719;28;20058;-43
2022/08/26 04:45:39;;;;;;;0.30;0.30;;;;;;;;;;4144767;28;20552;-43
2022/08/26 04:47:40;;;;;;;0.47;0.30;;;;;;;;;;4144750;28;20525;-42
2022/08/26 04:49:42;;;;;;;0.30;0.30;;;;;;;;;;4146417;28;20088;-42
2022/08/26 04:51:43;;;;;;;0.20;0.20;;;;;;;;;;4146181;28;20489;-42
2022/08/26 04:53:45;;;;;;;0.20;0.20;;;;;;;;;;4146220;28;20100;-43
2022/08/26 04:55:46;;;;;;;0.32;0.30;;;;;;;;;;4145994;28;20076;-42
2022/08/26 04:57:48;;;;;;;0.30;0.30;;;;;;;;;;4144434;28;20061;-42
2022/08/26 04:59:49;;;;;;;0.45;0.35;;;;;;;;;;4142869;28;20148;-42
2022/08/26 05:01:51;;;;;;;0.20;0.20;;;;;;;;;;4127214;28;20066;-42
2022/08/26 05:03:53;;;;;;;0.20;0.20;;;;;;;;;;4127410;28;20486;-42
2022/08/26 05:05:54;;;;;;;0.32;0.22;;;;;;;;;;4126561;28;20109;-42
2022/08/26 05:07:55;;;;;;;0.47;0.30;;;;;;;;;;4127530;28;20078;-42
2022/08/26 05:09:56;;;;;;;0.28;0.22;;;;;;;;;;4128060;28;20112;-42
2022/08/26 05:11:57;;;;;;;0.20;0.20;;;;;;;;;;4142632;28;20104;-42
2022/08/26 05:13:59;;;;;;;0.30;0.30;;;;;;;;;;4127350;28;20101;-42
2022/08/26 05:16:04;;;;;;;0.30;0.20;;;;;;;;;;4142982;28;20434;-42
2022/08/26 05:18:06;;;;;;;0.32;0.10;;;;;;;;;;4130850;28;20070;-42
2022/08/26 05:20:08;;;;;;;0.47;0.40;;;;;;;;;;4130735;28;20547;-42
2022/08/26 05:22:09;;;;;;;0.55;0.40;;;;;;;;;;4130426;28;20073;-42
2022/08/26 05:24:11;;;;;;;0.15;0.15;;;;;;;;;;4128802;28;20054;-42
2022/08/26 05:26:13;;;;;;;0.20;0.20;;;;;;;;;;4129283;28;20085;-42
2022/08/26 05:28:16;;;;;;;0.20;0.20;;;;;;;;;;4129937;28;20062;-42
2022/08/26 05:30:17;;;;;;;0.32;0.32;;;;;;;;;;4130412;28;20066;-43
2022/08/26 05:32:18;;;;;;;0.55;0.40;;;;;;;;;;4130473;28;20121;-42
2022/08/26 05:34:19;;;;;;;0.60;0.20;;;;;;;;;;4130556;28;20062;-43
2022/08/26 05:36:23;;;;;;;0.68;0.40;;;;;;;;;;4128680;28;20418;-42
2022/08/26 05:38:24;;;;;;;0.55;0.22;;;;;;;;;;4130559;28;20054;-42
2022/08/26 05:40:26;;;;;;;0.30;0.30;;;;;;;;;;4130486;28;20332;-42
2022/08/26 05:42:27;;;;;;;0.40;0.40;;;;;;;;;;4130054;28;20458;-42
2022/08/26 05:44:29;;;;;;;0.30;0.20;;;;;;;;;;4130286;28;20078;-42
2022/08/26 05:46:30;;;;;;;0.43;0.22;;;;;;;;;;4130233;28;20058;-42
2022/08/26 05:48:32;;;;;;;0.57;0.45;;;;;;;;;;4129837;28;20062;-42
2022/08/26 05:50:42;;;;;;;0.35;0.35;;;;;;;;;;4140986;28;20496;-42
2022/08/26 05:52:43;;;;;;;0.35;0.35;;;;;;;;;;4146188;28;20116;-42
2022/08/26 05:54:44;;;;;;;0.40;0.32;;;;;;;;;;4145178;28;20441;-42
2022/08/26 05:56:46;;;;;;;0.70;0.40;;;;;;;;;;4146809;28;20184;-42
2022/08/26 05:58:47;;;;;;;0.30;0.30;;;;;;;;;;4145877;28;20131;-42
2022/08/26 06:01:03;;;;;;;0.30;0.30;;;;;;;;;;4146203;28;20058;-42
2022/08/26 06:03:05;;;;;;;0.20;0.20;;;;;;;;;;4146357;28;20085;-43
2022/08/26 06:05:06;;;;;;;0.20;0.20;;;;;;;;;;4146209;28;20049;-42
2022/08/26 06:07:07;;;;;;;0.52;0.30;;;;;;;;;;4144906;28;20080;-42
2022/08/26 06:09:09;;;;;;;0.50;0.32;;;;;;;;;;4144646;28;20061;-42
2022/08/26 06:11:12;;;;;;;0.30;0.30;;;;;;;;;;4146402;28;20111;-42
2022/08/26 06:13:14;;;;;;;0.20;0.20;;;;;;;;;;4145405;28;20064;-42
2022/08/26 06:15:16;;;;;;;0.20;0.20;;;;;;;;;;4144763;28;20054;-41
2022/08/26 06:17:17;;;;;;;0.20;0.20;;;;;;;;;;4145003;28;20842;-42
2022/08/26 06:19:20;;;;;;;0.20;0.20;;;;;;;;;;4145674;28;20112;-41
2022/08/26 06:21:23;;;;;;;0.25;0.25;;;;;;;;;;4144671;28;20053;-43
2022/08/26 06:25:47;;;;;;;0.30;0.30;;;;;;;;;;4142423;28;20104;-42
2022/08/26 06:27:48;;;;;;;0.25;0.25;;;;;;;;;;4145245;28;20099;-42
2022/08/26 06:29:50;;;;;;;0.40;0.25;;;;;;;;;;4145943;28;20077;-42
2022/08/26 06:31:53;;;;;;;0.30;0.20;;;;;;;;;;4145823;28;20416;-42
2022/08/26 06:33:54;;;;;;;0.52;0.30;;;;;;;;;;4137998;28;20062;-43
2022/08/26 06:35:56;;;;;;;1.25;0.30;;;;;;;;;;4140446;28;20101;-42
2022/08/26 06:37:57;;;;;;;0.40;0.40;;;;;;;;;;4144449;28;20054;-41
2022/08/26 06:39:58;;;;;;;0.40;0.40;;;;;;;;;;4144910;28;20053;-43
2022/08/26 06:41:59;;;;;;;0.47;0.30;;;;;;;;;;4145320;28;20116;-42
2022/08/26 06:44:01;;;;;;;0.38;0.30;;;;;;;;;;4138516;28;20096;-42
2022/08/26 06:46:07;;;;;;;1.08;0.35;;;;;;;;;;4144025;28;20054;-42
2022/08/26 06:48:08;;;;;;;0.40;0.40;;;;;;;;;;4141443;28;20516;-42
2022/08/26 06:50:10;;;;;;;0.30;0.30;;;;;;;;;;4144565;28;20049;-42
2022/08/26 06:52:11;;;;;;;2.78;0.60;;;;;;;;;;4141660;28;20104;-43
2022/08/26 06:54:12;;;;;;;0.82;0.40;;;;;;;;;;4140242;28;20061;-44
2022/08/26 06:56:15;;;;;;;0.73;0.40;;;;;;;;;;4142093;28;20069;-42
2022/08/26 06:58:16;;;;;;;0.90;0.30;;;;;;;;;;4137498;28;20100;-42
2022/08/26 07:00:19;;;;;;;0.28;0.28;;;;;;;;;;4141707;28;20119;-42
2022/08/26 07:02:21;;;;;;;0.35;0.35;;;;;;;;;;4144139;28;20054;-42
2022/08/26 07:04:23;;;;;;;2.28;0.30;;;;;;;;;;4143156;28;20054;-41
2022/08/26 07:06:26;;;;;;;0.43;0.30;;;;;;;;;;4143432;28;20055;-42
2022/08/26 07:08:28;;;;;;;0.30;0.30;;;;;;;;;;4143704;28;20096;-42
2022/08/26 07:10:29;;;;;;;0.30;0.30;;;;;;;;;;4144850;28;20512;-44
2022/08/26 07:12:30;;;;;;;0.20;0.20;;;;;;;;;;4142421;28;20088;-42
2022/08/26 07:14:33;;;;;;;1.75;0.50;;;;;;;;;;4140157;28;20501;-41
2022/08/26 07:16:34;;;;;;;0.30;0.30;;;;;;;;;;4141845;28;20057;-42
2022/08/26 07:18:36;;;;;;;0.52;0.30;;;;;;;;;;4143894;28;20062;-42
2022/08/26 07:20:39;;;;;;;0.40;0.40;;;;;;;;;;4140225;28;20619;-42
2022/08/26 07:22:40;;;;;;;0.63;0.38;;;;;;;;;;4142567;28;20057;-42
2022/08/26 07:24:41;;;;;;;0.20;0.20;;;;;;;;;;4143966;28;20058;-42
2022/08/26 07:26:42;;;;;;;0.88;0.40;;;;;;;;;;4144317;28;20417;-43
2022/08/26 07:28:45;;;;;;;0.40;0.32;;;;;;;;;;4143154;28;20060;-42
2022/08/26 07:30:46;;;;;;;1.10;0.40;;;;;;;;;;4140200;28;20050;-42
2022/08/26 07:32:48;;;;;;;2.00;0.50;;;;;;;;;;4141871;28;20269;-42
2022/08/26 07:34:49;;;;;;;0.35;0.35;;;;;;;;;;4142091;28;20094;-42
2022/08/26 07:36:51;;;;;;;0.57;0.40;;;;;;;;;;4140740;28;20054;-43
2022/08/26 07:38:52;;;;;;;0.30;0.30;;;;;;;;;;4140783;28;20599;-42
2022/08/26 07:40:53;;;;;;;0.40;0.40;;;;;;;;;;4141880;28;20397;-42
2022/08/26 07:42:54;;;;;;;0.88;0.40;;;;;;;;;;4137598;28;20112;-42
2022/08/26 07:44:56;;;;;;;0.32;0.32;;;;;;;;;;4143022;28;20456;-42
2022/08/26 07:46:58;;;;;;;0.57;0.40;;;;;;;;;;4142289;28;20054;-42
2022/08/26 07:48:59;;;;;;;0.40;0.40;;;;;;;;;;4140312;28;20064;-42
2022/08/26 07:51:01;;;;;;;0.45;0.32;;;;;;;;;;4139839;28;20068;-42
2022/08/26 07:53:03;;;;;;;0.35;0.30;;;;;;;;;;4140261;28;20098;-42
2022/08/26 07:55:07;;;;;;;0.47;0.40;;;;;;;;;;4143018;28;20053;-43
2022/08/26 07:57:08;;;;;;;0.32;0.32;;;;;;;;;;4141607;28;20088;-43
2022/08/26 07:59:10;;;;;;;0.65;0.38;;;;;;;;;;4139203;28;20120;-42
2022/08/26 08:01:11;;;;;;;1.13;0.47;;;;;;;;;;4139943;28;20123;-43
2022/08/26 08:03:13;;;;;;;0.32;0.32;;;;;;;;;;4140260;28;20120;-43
2022/08/26 08:05:16;;;;;;;0.70;0.40;;;;;;;;;;4137584;28;20054;-42
2022/08/26 08:07:17;;;;;;;1.60;0.50;;;;;;;;;;4153096;28;20057;-43
2022/08/26 08:09:19;;;;;;;0.40;0.40;;;;;;;;;;4141500;28;20159;-42
2022/08/26 08:11:20;;;;;;;0.55;0.50;;;;;;;;;;4139228;28;20409;-43
2022/08/26 08:13:22;;;;;;;0.50;0.35;;;;;;;;;;4121416;28;20411;-43
2022/08/26 08:15:26;;;;;;;0.60;0.40;;;;;;;;;;4138428;28;20551;-42
2022/08/26 08:17:28;;;;;;;0.30;0.30;;;;;;;;;;4138590;28;20053;-42
2022/08/26 08:19:29;;;;;;;0.35;0.35;;;;;;;;;;4139924;28;20115;-43
2022/08/26 08:21:30;;;;;;;0.30;0.30;;;;;;;;;;4141377;28;20108;-42
2022/08/26 08:23:32;;;;;;;0.52;0.40;;;;;;;;;;4139882;28;20191;-43
2022/08/26 08:25:33;;;;;;;0.50;0.50;;;;;;;;;;4137661;28;20575;-42
2022/08/26 08:27:36;;;;;;;0.30;0.30;;;;;;;;;;4138148;28;20061;-43
2022/08/26 08:29:37;;;;;;;0.45;0.40;;;;;;;;;;4138372;28;20406;-43
2022/08/26 08:31:39;;;;;;;0.60;0.57;;;;;;;;;;4136191;28;20128;-42
2022/08/26 08:33:40;;;;;;;0.40;0.40;;;;;;;;;;4137445;28;20057;-42
2022/08/26 08:35:42;;;;;;;0.40;0.40;;;;;;;;;;4136729;28;20057;-42
2022/08/26 08:37:43;;;;;;;0.47;0.47;;;;;;;;;;4139507;28;20054;-45
2022/08/26 08:39:44;;;;;;;0.80;0.38;;;;;;;;;;4137390;28;20064;-43
2022/08/26 08:41:51;;;;;;;0.68;0.40;;;;;;;;;;4138934;28;20092;-42
2022/08/26 08:43:53;;;;;;;0.50;0.50;;;;;;;;;;4136452;28;20072;-42
2022/08/26 08:46:02;;;;;;;2.50;0.43;;;;;;;;;;4134834;28;20100;-42
2022/08/26 08:48:09;;;;;;;0.22;0.22;;;;;;;;;;4138264;28;20105;-43
2022/08/26 08:50:22;;;;;;;0.55;0.50;;;;;;;;;;4123337;28;20050;-42
2022/08/26 08:52:36;;;;;;;0.50;0.50;;;;;;;;;;4140271;28;20748;-42
2022/08/26 08:54:37;;;;;;;0.50;0.40;;;;;;;;;;4143150;28;20046;-43
2022/08/26 08:56:47;;;;;;;0.50;0.50;;;;;;;;;;4144327;28;20046;-43
2022/08/26 08:58:52;;;;;;;0.55;0.40;;;;;;;;;;4158463;28;20160;-43
2022/08/26 09:00:59;;;;;;;0.40;0.40;;;;;;;;;;4139883;28;20076;-42
2022/08/26 09:03:16;;;;;;;0.40;0.40;;;;;;;;;;4143391;28;20517;-42
2022/08/26 09:05:23;;;;;;;0.43;0.43;;;;;;;;;;4141977;28;20112;-43
2022/08/26 09:07:46;;;;;;;0.50;0.50;;;;;;;;;;4159233;28;20061;-42
2022/08/26 09:10:00;;;;;;;0.50;0.50;;;;;;;;;;4144221;28;20064;-42
2022/08/26 09:12:02;;;;;;;0.40;0.40;;;;;;;;;;4142263;28;20096;-43
2022/08/26 09:14:03;;;;;;;0.40;0.40;;;;;;;;;;4144702;28;20184;-43
2022/08/26 09:16:09;;;;;;;1.90;0.40;;;;;;;;;;4142903;28;20058;-43
2022/08/26 09:18:36;;;;;;;0.45;0.40;;;;;;;;;;4143913;28;20446;-42
2022/08/26 09:20:55;;;;;;;0.45;0.40;;;;;;;;;;4141320;28;20089;-42
2022/08/26 09:22:56;;;;;;;0.40;0.40;;;;;;;;;;4144877;28;20145;-42
2022/08/26 09:24:58;;;;;;;0.40;0.40;;;;;;;;;;4141844;28;20495;-42
2022/08/26 09:26:59;;;;;;;0.30;0.30;;;;;;;;;;4142499;28;20050;-43
2022/08/26 09:29:02;;;;;;;0.30;0.30;;;;;;;;;;4143441;28;20426;-43
2022/08/26 09:31:11;;;;;;;0.40;0.40;;;;;;;;;;4144397;28;20065;-43
2022/08/26 09:33:17;;;;;;;0.50;0.45;;;;;;;;;;4145297;28;20457;-43
2022/08/26 09:35:25;;;;;;;1.33;0.60;;;;;;;;;;4140101;28;20061;-43
2022/08/26 09:37:37;;;;;;;0.50;0.50;;;;;;;;;;4145452;28;20100;-42
2022/08/26 09:39:38;;;;;;;0.63;0.40;;;;;;;;;;4145191;28;20084;-44
2022/08/26 09:41:40;;;;;;;0.30;0.30;;;;;;;;;;4146317;28;20064;-43
2022/08/26 09:43:41;;;;;;;0.50;0.30;;;;;;;;;;4145544;28;20100;-43
2022/08/26 09:45:46;;;;;;;0.40;0.40;;;;;;;;;;4146672;28;20058;-42
2022/08/26 09:47:53;;;;;;;0.40;0.40;;;;;;;;;;4144945;28;20053;-43
2022/08/26 09:50:04;;;;;;;0.50;0.50;;;;;;;;;;4144648;28;20575;-42
2022/08/26 09:52:09;;;;;;;0.30;0.30;;;;;;;;;;4143776;28;20438;-42
2022/08/26 09:54:25;;;;;;;0.50;0.50;;;;;;;;;;4143956;28;20050;-43
2022/08/26 09:56:35;;;;;;;0.55;0.22;;;;;;;;;;4141788;28;20053;-43
2022/08/26 09:58:39;;;;;;;0.32;0.30;;;;;;;;;;4142508;28;20054;-43
2022/08/26 10:00:52;;;;;;;0.35;0.35;;;;;;;;;;4144558;28;20139;-47
2022/08/26 10:02:54;;;;;;;0.30;0.30;;;;;;;;;;4141999;28;20101;-43
2022/08/26 10:04:56;;;;;;;0.50;0.50;;;;;;;;;;4138913;28;20185;-42
2022/08/26 10:07:06;;;;;;;0.60;0.60;;;;;;;;;;4140792;28;20053;-43
2022/08/26 10:09:11;;;;;;;0.50;0.43;;;;;;;;;;4156451;28;20094;-43
2022/08/26 10:11:24;;;;;;;0.55;0.47;;;;;;;;;;4142239;28;21095;-44
2022/08/26 10:13:34;;;;;;;0.50;0.50;;;;;;;;;;4137253;28;20410;-43
2022/08/26 10:16:02;;;;;;;0.82;0.73;;;;;;;;;;4142273;28;20537;-44
2022/08/26 10:18:29;;;;;;;0.43;0.40;;;;;;;;;;4141157;28;20603;-43
2022/08/26 10:20:34;;;;;;;0.63;0.40;;;;;;;;;;4142897;28;20081;-44
2022/08/26 10:22:44;;;;;;;0.50;0.43;;;;;;;;;;4143937;28;20049;-43
2022/08/26 10:24:52;;;;;;;0.70;0.43;;;;;;;;;;4139279;28;20050;-43
2022/08/26 10:27:09;;;;;;;0.98;0.60;;;;;;;;;;4143935;28;20050;-42
2022/08/26 10:29:18;;;;;;;0.75;0.40;;;;;;;;;;4142657;28;20084;-43
2022/08/26 10:31:43;;;;;;;0.32;0.32;;;;;;;;;;4140619;28;20050;-44
2022/08/26 10:33:45;;;;;;;2.75;0.65;;;;;;;;;;4141446;28;20398;-43
2022/08/26 10:35:56;;;;;;;0.50;0.50;;;;;;;;;;4143789;28;20058;-43
2022/08/26 10:38:02;;;;;;;0.88;0.40;;;;;;;;;;4142470;28;20120;-44
2022/08/26 10:40:17;;;;;;;0.45;0.40;;;;;;;;;;4142245;28;20108;-43
2022/08/26 10:42:29;;;;;;;0.57;0.57;;;;;;;;;;4126181;28;20583;-43
2022/08/26 10:44:33;;;;;;;1.55;0.80;;;;;;;;;;4142346;28;20077;-43
2022/08/26 10:46:38;;;;;;;0.40;0.40;;;;;;;;;;4135978;28;20050;-43
2022/08/26 10:49:03;;;;;;;1.15;0.50;;;;;;;;;;4137556;28;20437;-42
2022/08/26 10:51:05;;;;;;;0.40;0.35;;;;;;;;;;4138001;28;20053;-44
2022/08/26 10:53:10;;;;;;;0.38;0.38;;;;;;;;;;4145060;28;20057;-44
2022/08/26 10:55:38;;;;;;;0.40;0.40;;;;;;;;;;4145621;28;20057;-43
2022/08/26 10:57:39;;;;;;;2.50;0.50;;;;;;;;;;4145567;28;20060;-44
2022/08/26 10:59:52;;;;;;;0.43;0.43;;;;;;;;;;4144713;28;20058;-44
2022/08/26 11:02:09;;;;;;;1.02;0.40;;;;;;;;;;4143133;28;20583;-43
2022/08/26 11:04:22;;;;;;;0.50;0.47;;;;;;;;;;4160315;28;20052;-44
2022/08/26 11:06:28;;;;;;;0.98;0.40;;;;;;;;;;4141036;28;20552;-43
2022/08/26 11:08:30;;;;;;;0.40;0.40;;;;;;;;;;4128922;28;20097;-43
2022/08/26 11:10:54;;;;;;;0.85;0.40;;;;;;;;;;4129721;28;20740;-44
2022/08/26 11:13:13;;;;;;;0.60;0.50;;;;;;;;;;4127859;28;20085;-44
2022/08/26 11:15:19;;;;;;;0.97;0.60;;;;;;;;;;4130410;28;20494;-42
2022/08/26 11:17:44;;;;;;;0.47;0.47;;;;;;;;;;4143860;28;20460;-43
2022/08/26 11:19:48;;;;;;;0.95;0.43;;;;;;;;;;4141773;28;20057;-43
2022/08/26 11:22:01;;;;;;;0.40;0.30;;;;;;;;;;4141008;28;20053;-42
2022/08/26 11:24:02;;;;;;;1.15;0.47;;;;;;;;;;4139335;28;20064;-43
2022/08/26 11:26:06;;;;;;;0.30;0.30;;;;;;;;;;4145253;28;20053;-42
2022/08/26 11:28:07;;;;;;;1.05;0.50;;;;;;;;;;4142968;28;20096;-43
2022/08/26 11:30:12;;;;;;;0.70;0.70;;;;;;;;;;4143734;28;20494;-42
2022/08/26 11:33:02;;;;;;;0.60;0.50;;;;;;;;;;4144963;28;20093;-43
2022/08/26 11:35:10;;;;;;;0.40;0.40;;;;;;;;;;4143561;28;20124;-42
2022/08/26 11:37:14;;;;;;;1.10;0.40;;;;;;;;;;4144649;28;20069;-42
2022/08/26 11:39:23;;;;;;;0.75;0.57;;;;;;;;;;4143214;28;20498;-47
2022/08/26 11:41:28;;;;;;;0.50;0.50;;;;;;;;;;4143698;28;20050;-43
2022/08/26 11:43:31;;;;;;;0.43;0.38;;;;;;;;;;4143029;28;20131;-42
2022/08/26 11:45:44;;;;;;;0.73;0.40;;;;;;;;;;4143489;28;20120;-42
2022/08/26 11:47:45;;;;;;;0.93;0.40;;;;;;;;;;4142970;28;20100;-42
2022/08/26 11:49:46;;;;;;;0.32;0.32;;;;;;;;;;4126530;28;20454;-43
2022/08/26 11:51:48;;;;;;;0.88;0.50;;;;;;;;;;4144521;28;20096;-42
2022/08/26 11:53:49;;;;;;;0.52;0.52;;;;;;;;;;4144425;28;20382;-42
2022/08/26 11:55:53;;;;;;;0.50;0.50;;;;;;;;;;4144383;28;20088;-43
2022/08/26 11:57:56;;;;;;;0.77;0.60;;;;;;;;;;4144439;28;20184;-42
2022/08/26 11:59:57;;;;;;;0.50;0.50;;;;;;;;;;4141750;28;20054;-42
2022/08/26 12:01:59;;;;;;;0.50;0.50;;;;;;;;;;4143589;28;20355;-43
2022/08/26 12:04:03;;;;;;;0.50;0.50;;;;;;;;;;4144018;28;20108;-43
2022/08/26 12:06:13;;;;;;;1.05;0.60;;;;;;;;;;4143067;28;20430;-42
2022/08/26 12:08:20;;;;;;;0.60;0.60;;;;;;;;;;4142914;28;20508;-43
2022/08/26 12:10:32;;;;;;;1.05;0.50;;;;;;;;;;4128120;28;20061;-43
2022/08/26 12:12:37;;;;;;;0.35;0.35;;;;;;;;;;4127106;28;20101;-43
2022/08/26 12:14:39;;;;;;;0.57;0.57;;;;;;;;;;4143441;28;20049;-43
2022/08/26 12:16:40;;;;;;;0.40;0.40;;;;;;;;;;4142955;28;20357;-43
2022/08/26 12:18:41;;;;;;;0.40;0.40;;;;;;;;;;4139489;28;20054;-43
2022/08/26 12:20:47;;;;;;;0.47;0.47;;;;;;;;;;4145089;28;20123;-42
2022/08/26 12:22:49;;;;;;;0.50;0.40;;;;;;;;;;4159979;28;20053;-42
2022/08/26 12:24:53;;;;;;;0.50;0.50;;;;;;;;;;4143606;28;20054;-42
2022/08/26 12:27:14;;;;;;;1.85;0.93;;;;;;;;;;4145990;28;20100;-43
2022/08/26 12:29:26;;;;;;;0.63;0.52;;;;;;;;;;4155707;28;20539;-43